sensor_id;sensor_type;location;lat;lon;timestamp;P1;durP1;ratioP1;P2;durP2;ratioP2
45354;SDS011;31091;48.758;9.150;2023-05-21T00:02:32;14.10;;;9.43;;
45354;SDS011;31091;48.758;9.150;2023-05-21T00:05:18;11.38;;;8.15;;
45354;SDS011;31091;48.758;9.150;2023-05-21T00:08:05;12.57;;;8.30;;
45354;SDS011;31091;48.758;9.150;2023-05-21T00:10:50;14.18;;;9.43;;
45354;SDS011;31091;48.758;9.150;2023-05-21T00:13:35;12.05;;;8.40;;
45354;SDS011;31091;48.758;9.150;2023-05-21T00:16:22;12.52;;;9.05;;
45354;SDS011;31091;48.758;9.150;2023-05-21T00:19:08;11.75;;;8.32;;
45354;SDS011;31091;48.758;9.150;2023-05-21T00:21:54;12.98;;;8.95;;
45354;SDS011;31091;48.758;9.150;2023-05-21T00:24:39;12.18;;;8.23;;
45354;SDS011;31091;48.758;9.150;2023-05-21T00:27:25;12.95;;;8.73;;
45354;SDS011;31091;48.758;9.150;2023-05-21T00:30:10;12.15;;;8.55;;
45354;SDS011;31091;48.758;9.150;2023-05-21T00:32:55;11.73;;;8.60;;
45354;SDS011;31091;48.758;9.150;2023-05-21T00:35:42;14.90;;;8.90;;
45354;SDS011;31091;48.758;9.150;2023-05-21T00:38:27;14.15;;;9.65;;
45354;SDS011;31091;48.758;9.150;2023-05-21T00:41:13;13.15;;;9.07;;
45354;SDS011;31091;48.758;9.150;2023-05-21T00:43:58;13.52;;;8.75;;
45354;SDS011;31091;48.758;9.150;2023-05-21T00:46:44;12.73;;;8.77;;
45354;SDS011;31091;48.758;9.150;2023-05-21T00:49:29;12.48;;;8.00;;
45354;SDS011;31091;48.758;9.150;2023-05-21T00:52:15;13.32;;;8.38;;
45354;SDS011;31091;48.758;9.150;2023-05-21T00:55:04;12.90;;;9.80;;
45354;SDS011;31091;48.758;9.150;2023-05-21T00:57:49;13.50;;;10.15;;
45354;SDS011;31091;48.758;9.150;2023-05-21T01:00:35;12.23;;;8.70;;
45354;SDS011;31091;48.758;9.150;2023-05-21T01:03:21;11.32;;;8.00;;
45354;SDS011;31091;48.758;9.150;2023-05-21T01:06:07;14.85;;;9.63;;
45354;SDS011;31091;48.758;9.150;2023-05-21T01:08:53;13.35;;;8.95;;
45354;SDS011;31091;48.758;9.150;2023-05-21T01:11:42;13.48;;;9.18;;
45354;SDS011;31091;48.758;9.150;2023-05-21T01:14:28;12.30;;;8.70;;
45354;SDS011;31091;48.758;9.150;2023-05-21T01:17:15;18.23;;;10.52;;
45354;SDS011;31091;48.758;9.150;2023-05-21T01:20:01;13.63;;;10.15;;
45354;SDS011;31091;48.758;9.150;2023-05-21T01:22:54;13.07;;;9.38;;
45354;SDS011;31091;48.758;9.150;2023-05-21T01:25:39;15.10;;;10.73;;
45354;SDS011;31091;48.758;9.150;2023-05-21T01:28:26;16.45;;;10.30;;
45354;SDS011;31091;48.758;9.150;2023-05-21T01:31:28;13.50;;;9.60;;
45354;SDS011;31091;48.758;9.150;2023-05-21T01:34:15;15.15;;;9.73;;
45354;SDS011;31091;48.758;9.150;2023-05-21T01:37:07;14.43;;;10.65;;
45354;SDS011;31091;48.758;9.150;2023-05-21T01:39:55;13.50;;;9.40;;
45354;SDS011;31091;48.758;9.150;2023-05-21T01:42:44;13.57;;;10.07;;
45354;SDS011;31091;48.758;9.150;2023-05-21T01:45:29;13.40;;;10.37;;
45354;SDS011;31091;48.758;9.150;2023-05-21T01:48:15;15.10;;;10.65;;
45354;SDS011;31091;48.758;9.150;2023-05-21T01:51:02;15.80;;;10.82;;
45354;SDS011;31091;48.758;9.150;2023-05-21T01:53:47;15.23;;;10.95;;
45354;SDS011;31091;48.758;9.150;2023-05-21T01:56:33;13.75;;;10.20;;
45354;SDS011;31091;48.758;9.150;2023-05-21T01:59:20;11.82;;;9.20;;
45354;SDS011;31091;48.758;9.150;2023-05-21T02:02:06;14.60;;;10.43;;
45354;SDS011;31091;48.758;9.150;2023-05-21T02:04:51;13.55;;;9.32;;
45354;SDS011;31091;48.758;9.150;2023-05-21T02:07:36;13.02;;;9.30;;
45354;SDS011;31091;48.758;9.150;2023-05-21T02:10:22;14.80;;;10.50;;
45354;SDS011;31091;48.758;9.150;2023-05-21T02:13:07;14.10;;;10.10;;
45354;SDS011;31091;48.758;9.150;2023-05-21T02:15:52;14.25;;;9.70;;
45354;SDS011;31091;48.758;9.150;2023-05-21T02:18:38;14.63;;;9.45;;
45354;SDS011;31091;48.758;9.150;2023-05-21T02:21:24;15.32;;;10.50;;
45354;SDS011;31091;48.758;9.150;2023-05-21T02:24:09;13.75;;;10.40;;
45354;SDS011;31091;48.758;9.150;2023-05-21T02:26:55;13.13;;;10.30;;
45354;SDS011;31091;48.758;9.150;2023-05-21T02:29:40;13.10;;;9.82;;
45354;SDS011;31091;48.758;9.150;2023-05-21T02:32:25;14.88;;;10.57;;
45354;SDS011;31091;48.758;9.150;2023-05-21T02:35:11;15.35;;;10.98;;
45354;SDS011;31091;48.758;9.150;2023-05-21T02:37:57;16.83;;;12.00;;
45354;SDS011;31091;48.758;9.150;2023-05-21T02:40:43;14.07;;;11.55;;
45354;SDS011;31091;48.758;9.150;2023-05-21T02:43:28;19.88;;;10.52;;
45354;SDS011;31091;48.758;9.150;2023-05-21T02:46:13;13.73;;;10.73;;
45354;SDS011;31091;48.758;9.150;2023-05-21T02:48:58;13.73;;;10.07;;
45354;SDS011;31091;48.758;9.150;2023-05-21T02:51:43;14.55;;;10.82;;
45354;SDS011;31091;48.758;9.150;2023-05-21T02:54:29;16.02;;;11.20;;
45354;SDS011;31091;48.758;9.150;2023-05-21T02:57:14;15.88;;;11.90;;
45354;SDS011;31091;48.758;9.150;2023-05-21T02:59:59;16.77;;;11.90;;
45354;SDS011;31091;48.758;9.150;2023-05-21T03:02:45;16.85;;;11.68;;
45354;SDS011;31091;48.758;9.150;2023-05-21T03:05:30;16.05;;;12.45;;
45354;SDS011;31091;48.758;9.150;2023-05-21T03:08:15;15.93;;;12.02;;
45354;SDS011;31091;48.758;9.150;2023-05-21T03:11:00;16.92;;;11.30;;
45354;SDS011;31091;48.758;9.150;2023-05-21T03:13:46;15.60;;;11.50;;
45354;SDS011;31091;48.758;9.150;2023-05-21T03:16:31;15.13;;;11.32;;
45354;SDS011;31091;48.758;9.150;2023-05-21T03:19:18;15.40;;;11.23;;
45354;SDS011;31091;48.758;9.150;2023-05-21T03:22:04;15.43;;;11.15;;
45354;SDS011;31091;48.758;9.150;2023-05-21T03:24:50;17.35;;;11.95;;
45354;SDS011;31091;48.758;9.150;2023-05-21T03:27:35;15.88;;;11.32;;
45354;SDS011;31091;48.758;9.150;2023-05-21T03:30:20;15.55;;;10.68;;
45354;SDS011;31091;48.758;9.150;2023-05-21T03:33:06;18.08;;;12.00;;
45354;SDS011;31091;48.758;9.150;2023-05-21T03:35:51;20.67;;;12.88;;
45354;SDS011;31091;48.758;9.150;2023-05-21T03:38:36;17.83;;;11.82;;
45354;SDS011;31091;48.758;9.150;2023-05-21T03:41:21;14.73;;;11.43;;
45354;SDS011;31091;48.758;9.150;2023-05-21T03:44:07;15.25;;;11.07;;
45354;SDS011;31091;48.758;9.150;2023-05-21T03:46:52;14.65;;;10.70;;
45354;SDS011;31091;48.758;9.150;2023-05-21T03:49:37;15.65;;;11.32;;
45354;SDS011;31091;48.758;9.150;2023-05-21T03:52:22;15.35;;;10.80;;
45354;SDS011;31091;48.758;9.150;2023-05-21T03:55:08;15.13;;;10.63;;
45354;SDS011;31091;48.758;9.150;2023-05-21T03:57:53;18.80;;;13.07;;
45354;SDS011;31091;48.758;9.150;2023-05-21T04:00:38;17.08;;;11.68;;
45354;SDS011;31091;48.758;9.150;2023-05-21T04:03:24;17.25;;;13.32;;
45354;SDS011;31091;48.758;9.150;2023-05-21T04:06:09;15.85;;;12.70;;
45354;SDS011;31091;48.758;9.150;2023-05-21T04:08:55;15.05;;;10.65;;
45354;SDS011;31091;48.758;9.150;2023-05-21T04:11:40;17.33;;;12.30;;
45354;SDS011;31091;48.758;9.150;2023-05-21T04:14:25;17.63;;;12.73;;
45354;SDS011;31091;48.758;9.150;2023-05-21T04:17:10;15.27;;;10.93;;
45354;SDS011;31091;48.758;9.150;2023-05-21T04:19:56;16.10;;;12.35;;
45354;SDS011;31091;48.758;9.150;2023-05-21T04:22:42;17.23;;;12.43;;
45354;SDS011;31091;48.758;9.150;2023-05-21T04:25:27;15.40;;;11.07;;
45354;SDS011;31091;48.758;9.150;2023-05-21T04:28:12;15.30;;;12.30;;
45354;SDS011;31091;48.758;9.150;2023-05-21T04:30:57;15.25;;;11.93;;
45354;SDS011;31091;48.758;9.150;2023-05-21T04:33:43;20.88;;;11.65;;
45354;SDS011;31091;48.758;9.150;2023-05-21T04:36:29;16.90;;;13.20;;
45354;SDS011;31091;48.758;9.150;2023-05-21T04:39:15;17.20;;;12.00;;
45354;SDS011;31091;48.758;9.150;2023-05-21T04:42:01;16.63;;;12.48;;
45354;SDS011;31091;48.758;9.150;2023-05-21T04:44:47;16.00;;;12.38;;
45354;SDS011;31091;48.758;9.150;2023-05-21T04:47:32;17.30;;;12.75;;
45354;SDS011;31091;48.758;9.150;2023-05-21T04:50:19;16.27;;;12.68;;
45354;SDS011;31091;48.758;9.150;2023-05-21T04:53:04;15.27;;;11.77;;
45354;SDS011;31091;48.758;9.150;2023-05-21T04:55:49;17.33;;;12.52;;
45354;SDS011;31091;48.758;9.150;2023-05-21T04:58:34;18.00;;;11.63;;
45354;SDS011;31091;48.758;9.150;2023-05-21T05:01:20;15.18;;;11.32;;
45354;SDS011;31091;48.758;9.150;2023-05-21T05:04:13;22.73;;;13.95;;
45354;SDS011;31091;48.758;9.150;2023-05-21T05:06:58;15.18;;;11.63;;
45354;SDS011;31091;48.758;9.150;2023-05-21T05:09:43;19.42;;;13.50;;
45354;SDS011;31091;48.758;9.150;2023-05-21T05:12:28;15.60;;;11.60;;
45354;SDS011;31091;48.758;9.150;2023-05-21T05:15:14;16.70;;;12.27;;
45354;SDS011;31091;48.758;9.150;2023-05-21T05:17:59;17.10;;;13.07;;
45354;SDS011;31091;48.758;9.150;2023-05-21T05:20:45;17.63;;;11.93;;
45354;SDS011;31091;48.758;9.150;2023-05-21T05:23:31;16.95;;;12.65;;
45354;SDS011;31091;48.758;9.150;2023-05-21T05:26:16;14.82;;;10.82;;
45354;SDS011;31091;48.758;9.150;2023-05-21T05:29:02;15.00;;;12.15;;
45354;SDS011;31091;48.758;9.150;2023-05-21T05:31:47;15.80;;;12.10;;
45354;SDS011;31091;48.758;9.150;2023-05-21T05:34:32;16.98;;;12.60;;
45354;SDS011;31091;48.758;9.150;2023-05-21T05:37:17;17.58;;;12.13;;
45354;SDS011;31091;48.758;9.150;2023-05-21T05:40:03;17.85;;;12.80;;
45354;SDS011;31091;48.758;9.150;2023-05-21T05:42:49;16.83;;;11.80;;
45354;SDS011;31091;48.758;9.150;2023-05-21T05:45:36;16.00;;;12.68;;
45354;SDS011;31091;48.758;9.150;2023-05-21T05:48:21;19.58;;;13.35;;
45354;SDS011;31091;48.758;9.150;2023-05-21T05:51:06;19.60;;;13.35;;
45354;SDS011;31091;48.758;9.150;2023-05-21T05:53:52;16.38;;;11.70;;
45354;SDS011;31091;48.758;9.150;2023-05-21T05:56:37;16.13;;;12.07;;
45354;SDS011;31091;48.758;9.150;2023-05-21T05:59:22;17.80;;;12.30;;
45354;SDS011;31091;48.758;9.150;2023-05-21T06:02:07;16.13;;;13.02;;
45354;SDS011;31091;48.758;9.150;2023-05-21T06:04:53;17.33;;;12.48;;
45354;SDS011;31091;48.758;9.150;2023-05-21T06:07:38;17.10;;;12.52;;
45354;SDS011;31091;48.758;9.150;2023-05-21T06:10:23;20.15;;;14.43;;
45354;SDS011;31091;48.758;9.150;2023-05-21T06:13:09;17.58;;;11.95;;
45354;SDS011;31091;48.758;9.150;2023-05-21T06:15:54;19.00;;;14.15;;
45354;SDS011;31091;48.758;9.150;2023-05-21T06:18:39;16.95;;;12.38;;
45354;SDS011;31091;48.758;9.150;2023-05-21T06:21:24;16.67;;;11.80;;
45354;SDS011;31091;48.758;9.150;2023-05-21T06:24:10;16.90;;;12.30;;
45354;SDS011;31091;48.758;9.150;2023-05-21T06:26:55;16.27;;;12.57;;
45354;SDS011;31091;48.758;9.150;2023-05-21T06:29:40;16.63;;;11.77;;
45354;SDS011;31091;48.758;9.150;2023-05-21T06:32:26;17.35;;;12.15;;
45354;SDS011;31091;48.758;9.150;2023-05-21T06:35:11;17.65;;;11.82;;
45354;SDS011;31091;48.758;9.150;2023-05-21T06:37:56;17.45;;;13.38;;
45354;SDS011;31091;48.758;9.150;2023-05-21T06:40:41;17.00;;;11.98;;
45354;SDS011;31091;48.758;9.150;2023-05-21T06:43:28;14.25;;;10.63;;
45354;SDS011;31091;48.758;9.150;2023-05-21T06:46:13;15.50;;;12.20;;
45354;SDS011;31091;48.758;9.150;2023-05-21T06:48:59;14.45;;;11.70;;
45354;SDS011;31091;48.758;9.150;2023-05-21T06:51:45;17.65;;;11.15;;
45354;SDS011;31091;48.758;9.150;2023-05-21T06:54:30;16.33;;;12.48;;
45354;SDS011;31091;48.758;9.150;2023-05-21T06:57:15;15.15;;;12.02;;
45354;SDS011;31091;48.758;9.150;2023-05-21T07:00:01;15.85;;;11.50;;
45354;SDS011;31091;48.758;9.150;2023-05-21T07:02:46;17.10;;;11.23;;
45354;SDS011;31091;48.758;9.150;2023-05-21T07:05:31;15.23;;;10.75;;
45354;SDS011;31091;48.758;9.150;2023-05-21T07:08:16;17.15;;;13.10;;
45354;SDS011;31091;48.758;9.150;2023-05-21T07:11:03;16.20;;;11.32;;
45354;SDS011;31091;48.758;9.150;2023-05-21T07:13:49;17.00;;;12.90;;
45354;SDS011;31091;48.758;9.150;2023-05-21T07:16:34;15.50;;;12.10;;
45354;SDS011;31091;48.758;9.150;2023-05-21T07:19:19;15.32;;;12.27;;
45354;SDS011;31091;48.758;9.150;2023-05-21T07:22:04;14.77;;;10.40;;
45354;SDS011;31091;48.758;9.150;2023-05-21T07:24:50;15.32;;;10.85;;
45354;SDS011;31091;48.758;9.150;2023-05-21T07:27:35;15.25;;;11.02;;
45354;SDS011;31091;48.758;9.150;2023-05-21T07:30:21;13.45;;;11.23;;
45354;SDS011;31091;48.758;9.150;2023-05-21T07:33:06;13.40;;;10.68;;
45354;SDS011;31091;48.758;9.150;2023-05-21T07:35:51;15.15;;;11.63;;
45354;SDS011;31091;48.758;9.150;2023-05-21T07:38:36;14.05;;;10.82;;
45354;SDS011;31091;48.758;9.150;2023-05-21T07:41:21;12.98;;;9.27;;
45354;SDS011;31091;48.758;9.150;2023-05-21T07:44:07;14.50;;;9.93;;
45354;SDS011;31091;48.758;9.150;2023-05-21T07:46:52;14.13;;;11.60;;
45354;SDS011;31091;48.758;9.150;2023-05-21T07:49:37;13.52;;;9.88;;
45354;SDS011;31091;48.758;9.150;2023-05-21T07:52:23;15.68;;;11.00;;
45354;SDS011;31091;48.758;9.150;2023-05-21T07:55:08;14.32;;;10.38;;
45354;SDS011;31091;48.758;9.150;2023-05-21T07:57:54;17.17;;;11.10;;
45354;SDS011;31091;48.758;9.150;2023-05-21T08:00:43;14.18;;;11.07;;
45354;SDS011;31091;48.758;9.150;2023-05-21T08:03:30;13.98;;;11.25;;
45354;SDS011;31091;48.758;9.150;2023-05-21T08:06:16;13.80;;;9.45;;
45354;SDS011;31091;48.758;9.150;2023-05-21T08:09:01;12.30;;;8.70;;
45354;SDS011;31091;48.758;9.150;2023-05-21T08:11:46;17.40;;;11.20;;
45354;SDS011;31091;48.758;9.150;2023-05-21T08:14:31;14.60;;;10.98;;
45354;SDS011;31091;48.758;9.150;2023-05-21T08:17:17;14.32;;;10.35;;
45354;SDS011;31091;48.758;9.150;2023-05-21T08:20:02;16.83;;;9.48;;
45354;SDS011;31091;48.758;9.150;2023-05-21T08:22:48;14.60;;;10.45;;
45354;SDS011;31091;48.758;9.150;2023-05-21T08:25:33;14.68;;;11.15;;
45354;SDS011;31091;48.758;9.150;2023-05-21T08:28:20;13.90;;;10.45;;
45354;SDS011;31091;48.758;9.150;2023-05-21T08:31:05;13.45;;;10.00;;
45354;SDS011;31091;48.758;9.150;2023-05-21T08:33:51;15.48;;;11.02;;
45354;SDS011;31091;48.758;9.150;2023-05-21T08:36:36;14.35;;;10.15;;
45354;SDS011;31091;48.758;9.150;2023-05-21T08:39:22;15.90;;;10.18;;
45354;SDS011;31091;48.758;9.150;2023-05-21T08:42:08;14.00;;;10.15;;
45354;SDS011;31091;48.758;9.150;2023-05-21T08:44:55;13.65;;;10.38;;
45354;SDS011;31091;48.758;9.150;2023-05-21T08:47:41;15.82;;;10.02;;
45354;SDS011;31091;48.758;9.150;2023-05-21T08:50:34;14.20;;;9.75;;
45354;SDS011;31091;48.758;9.150;2023-05-21T08:53:22;15.00;;;9.45;;
45354;SDS011;31091;48.758;9.150;2023-05-21T08:56:08;15.43;;;10.35;;
45354;SDS011;31091;48.758;9.150;2023-05-21T08:58:53;16.38;;;10.55;;
45354;SDS011;31091;48.758;9.150;2023-05-21T09:01:39;14.32;;;9.90;;
45354;SDS011;31091;48.758;9.150;2023-05-21T09:04:26;14.15;;;10.32;;
45354;SDS011;31091;48.758;9.150;2023-05-21T09:07:12;13.18;;;10.43;;
45354;SDS011;31091;48.758;9.150;2023-05-21T09:09:59;14.20;;;11.60;;
45354;SDS011;31091;48.758;9.150;2023-05-21T09:12:46;15.05;;;10.38;;
45354;SDS011;31091;48.758;9.150;2023-05-21T09:15:32;13.75;;;10.27;;
45354;SDS011;31091;48.758;9.150;2023-05-21T09:18:18;12.80;;;10.48;;
45354;SDS011;31091;48.758;9.150;2023-05-21T09:21:21;17.65;;;10.13;;
45354;SDS011;31091;48.758;9.150;2023-05-21T09:24:06;13.35;;;9.65;;
45354;SDS011;31091;48.758;9.150;2023-05-21T09:26:53;13.13;;;8.98;;
45354;SDS011;31091;48.758;9.150;2023-05-21T09:29:40;17.63;;;9.93;;
45354;SDS011;31091;48.758;9.150;2023-05-21T09:32:26;14.70;;;10.55;;
45354;SDS011;31091;48.758;9.150;2023-05-21T09:35:14;15.43;;;10.48;;
45354;SDS011;31091;48.758;9.150;2023-05-21T09:37:59;14.30;;;10.35;;
45354;SDS011;31091;48.758;9.150;2023-05-21T09:40:45;12.98;;;9.80;;
45354;SDS011;31091;48.758;9.150;2023-05-21T09:43:31;12.38;;;9.70;;
45354;SDS011;31091;48.758;9.150;2023-05-21T09:46:19;12.43;;;9.35;;
45354;SDS011;31091;48.758;9.150;2023-05-21T09:49:04;10.68;;;8.38;;
45354;SDS011;31091;48.758;9.150;2023-05-21T09:51:52;13.60;;;9.05;;
45354;SDS011;31091;48.758;9.150;2023-05-21T09:54:38;12.65;;;9.52;;
45354;SDS011;31091;48.758;9.150;2023-05-21T09:57:24;13.48;;;9.68;;
45354;SDS011;31091;48.758;9.150;2023-05-21T10:03:02;15.05;;;8.65;;
45354;SDS011;31091;48.758;9.150;2023-05-21T10:05:50;12.48;;;8.45;;
45354;SDS011;31091;48.758;9.150;2023-05-21T10:08:36;13.73;;;9.55;;
45354;SDS011;31091;48.758;9.150;2023-05-21T10:11:25;14.18;;;8.93;;
45354;SDS011;31091;48.758;9.150;2023-05-21T10:14:15;11.55;;;8.10;;
45354;SDS011;31091;48.758;9.150;2023-05-21T10:17:00;11.13;;;8.35;;
45354;SDS011;31091;48.758;9.150;2023-05-21T10:19:46;15.70;;;9.63;;
45354;SDS011;31091;48.758;9.150;2023-05-21T10:22:32;11.95;;;8.20;;
45354;SDS011;31091;48.758;9.150;2023-05-21T10:25:17;12.75;;;8.15;;
45354;SDS011;31091;48.758;9.150;2023-05-21T10:28:03;13.80;;;9.48;;
45354;SDS011;31091;48.758;9.150;2023-05-21T10:30:50;11.30;;;8.60;;
45354;SDS011;31091;48.758;9.150;2023-05-21T10:33:37;12.43;;;8.63;;
45354;SDS011;31091;48.758;9.150;2023-05-21T10:36:22;10.35;;;8.23;;
45354;SDS011;31091;48.758;9.150;2023-05-21T10:39:08;10.88;;;8.07;;
45354;SDS011;31091;48.758;9.150;2023-05-21T10:41:55;10.73;;;7.80;;
45354;SDS011;31091;48.758;9.150;2023-05-21T11:02:05;12.63;;;8.82;;
45354;SDS011;31091;48.758;9.150;2023-05-21T11:04:57;13.45;;;8.95;;
45354;SDS011;31091;48.758;9.150;2023-05-21T11:07:49;15.10;;;10.48;;
45354;SDS011;31091;48.758;9.150;2023-05-21T11:10:36;17.25;;;9.23;;
45354;SDS011;31091;48.758;9.150;2023-05-21T11:13:22;22.90;;;11.25;;
45354;SDS011;31091;48.758;9.150;2023-05-21T11:16:12;14.38;;;9.63;;
45354;SDS011;31091;48.758;9.150;2023-05-21T11:18:57;13.13;;;8.70;;
45354;SDS011;31091;48.758;9.150;2023-05-21T11:21:43;11.00;;;8.98;;
45354;SDS011;31091;48.758;9.150;2023-05-21T11:24:35;13.68;;;8.55;;
45354;SDS011;31091;48.758;9.150;2023-05-21T11:27:37;9.93;;;7.95;;
45354;SDS011;31091;48.758;9.150;2023-05-21T11:30:22;22.63;;;10.05;;
45354;SDS011;31091;48.758;9.150;2023-05-21T11:35:56;14.27;;;8.80;;
45354;SDS011;31091;48.758;9.150;2023-05-21T11:38:43;11.10;;;8.75;;
45354;SDS011;31091;48.758;9.150;2023-05-21T11:41:58;27.48;;;11.40;;
45354;SDS011;31091;48.758;9.150;2023-05-21T11:44:45;9.90;;;8.02;;
45354;SDS011;31091;48.758;9.150;2023-05-21T11:47:31;14.15;;;8.93;;
45354;SDS011;31091;48.758;9.150;2023-05-21T11:50:16;17.20;;;9.38;;
45354;SDS011;31091;48.758;9.150;2023-05-21T11:53:02;16.50;;;9.80;;
45354;SDS011;31091;48.758;9.150;2023-05-21T11:55:47;12.32;;;8.73;;
45354;SDS011;31091;48.758;9.150;2023-05-21T11:58:32;12.63;;;7.97;;
45354;SDS011;31091;48.758;9.150;2023-05-21T12:01:21;13.23;;;8.68;;
45354;SDS011;31091;48.758;9.150;2023-05-21T12:04:07;10.38;;;7.70;;
45354;SDS011;31091;48.758;9.150;2023-05-21T12:06:52;26.40;;;8.45;;
45354;SDS011;31091;48.758;9.150;2023-05-21T12:09:41;13.00;;;8.55;;
45354;SDS011;31091;48.758;9.150;2023-05-21T12:12:26;12.90;;;7.90;;
45354;SDS011;31091;48.758;9.150;2023-05-21T12:15:11;13.88;;;7.57;;
45354;SDS011;31091;48.758;9.150;2023-05-21T12:17:57;13.90;;;7.88;;
45354;SDS011;31091;48.758;9.150;2023-05-21T12:20:43;10.55;;;8.23;;
45354;SDS011;31091;48.758;9.150;2023-05-21T12:23:28;13.70;;;9.02;;
45354;SDS011;31091;48.758;9.150;2023-05-21T12:26:15;11.90;;;7.55;;
45354;SDS011;31091;48.758;9.150;2023-05-21T12:29:00;11.63;;;7.25;;
45354;SDS011;31091;48.758;9.150;2023-05-21T12:31:48;10.27;;;7.55;;
45354;SDS011;31091;48.758;9.150;2023-05-21T12:37:27;12.70;;;7.55;;
45354;SDS011;31091;48.758;9.150;2023-05-21T12:40:16;17.23;;;8.57;;
45354;SDS011;31091;48.758;9.150;2023-05-21T12:43:02;15.98;;;8.38;;
45354;SDS011;31091;48.758;9.150;2023-05-21T12:45:47;12.40;;;7.30;;
45354;SDS011;31091;48.758;9.150;2023-05-21T12:48:32;12.10;;;7.70;;
45354;SDS011;31091;48.758;9.150;2023-05-21T12:51:18;12.13;;;7.97;;
45354;SDS011;31091;48.758;9.150;2023-05-21T12:54:03;10.55;;;7.10;;
45354;SDS011;31091;48.758;9.150;2023-05-21T12:56:48;15.00;;;8.13;;
45354;SDS011;31091;48.758;9.150;2023-05-21T12:59:44;11.30;;;7.10;;
45354;SDS011;31091;48.758;9.150;2023-05-21T13:02:33;9.85;;;7.82;;
45354;SDS011;31091;48.758;9.150;2023-05-21T13:05:19;10.40;;;7.15;;
45354;SDS011;31091;48.758;9.150;2023-05-21T13:08:04;9.50;;;6.65;;
45354;SDS011;31091;48.758;9.150;2023-05-21T13:10:49;8.57;;;6.10;;
45354;SDS011;31091;48.758;9.150;2023-05-21T13:13:34;10.07;;;6.18;;
45354;SDS011;31091;48.758;9.150;2023-05-21T13:16:20;9.68;;;6.20;;
45354;SDS011;31091;48.758;9.150;2023-05-21T13:19:06;8.00;;;6.30;;
45354;SDS011;31091;48.758;9.150;2023-05-21T13:21:52;8.23;;;6.53;;
45354;SDS011;31091;48.758;9.150;2023-05-21T13:24:37;9.73;;;5.88;;
45354;SDS011;31091;48.758;9.150;2023-05-21T13:27:23;7.82;;;5.80;;
45354;SDS011;31091;48.758;9.150;2023-05-21T13:30:09;8.50;;;5.90;;
45354;SDS011;31091;48.758;9.150;2023-05-21T13:32:55;8.65;;;6.20;;
45354;SDS011;31091;48.758;9.150;2023-05-21T13:35:40;8.05;;;5.68;;
45354;SDS011;31091;48.758;9.150;2023-05-21T13:38:26;9.40;;;6.15;;
45354;SDS011;31091;48.758;9.150;2023-05-21T13:41:11;9.02;;;5.85;;
45354;SDS011;31091;48.758;9.150;2023-05-21T13:43:56;8.68;;;6.55;;
45354;SDS011;31091;48.758;9.150;2023-05-21T13:46:41;9.25;;;5.97;;
45354;SDS011;31091;48.758;9.150;2023-05-21T13:49:27;9.25;;;5.63;;
45354;SDS011;31091;48.758;9.150;2023-05-21T13:52:12;8.15;;;6.13;;
45354;SDS011;31091;48.758;9.150;2023-05-21T13:54:57;9.82;;;5.88;;
45354;SDS011;31091;48.758;9.150;2023-05-21T13:57:42;9.35;;;6.05;;
45354;SDS011;31091;48.758;9.150;2023-05-21T14:00:28;9.40;;;6.20;;
45354;SDS011;31091;48.758;9.150;2023-05-21T14:03:13;11.10;;;5.35;;
45354;SDS011;31091;48.758;9.150;2023-05-21T14:05:58;8.57;;;5.28;;
45354;SDS011;31091;48.758;9.150;2023-05-21T14:08:44;8.43;;;5.35;;
45354;SDS011;31091;48.758;9.150;2023-05-21T14:11:29;7.80;;;5.50;;
45354;SDS011;31091;48.758;9.150;2023-05-21T14:14:15;8.32;;;5.40;;
45354;SDS011;31091;48.758;9.150;2023-05-21T14:17:04;7.75;;;5.43;;
45354;SDS011;31091;48.758;9.150;2023-05-21T14:19:50;8.20;;;5.55;;
45354;SDS011;31091;48.758;9.150;2023-05-21T14:22:35;15.68;;;5.90;;
45354;SDS011;31091;48.758;9.150;2023-05-21T14:25:20;8.05;;;5.70;;
45354;SDS011;31091;48.758;9.150;2023-05-21T14:28:06;10.45;;;5.80;;
45354;SDS011;31091;48.758;9.150;2023-05-21T14:30:51;9.95;;;5.18;;
45354;SDS011;31091;48.758;9.150;2023-05-21T14:33:36;8.98;;;5.50;;
45354;SDS011;31091;48.758;9.150;2023-05-21T14:36:22;7.70;;;5.35;;
45354;SDS011;31091;48.758;9.150;2023-05-21T14:39:07;9.43;;;5.25;;
45354;SDS011;31091;48.758;9.150;2023-05-21T14:41:52;10.65;;;6.38;;
45354;SDS011;31091;48.758;9.150;2023-05-21T14:44:37;10.68;;;5.97;;
45354;SDS011;31091;48.758;9.150;2023-05-21T14:47:23;6.97;;;5.00;;
45354;SDS011;31091;48.758;9.150;2023-05-21T14:50:08;7.47;;;5.03;;
45354;SDS011;31091;48.758;9.150;2023-05-21T14:52:53;10.55;;;6.85;;
45354;SDS011;31091;48.758;9.150;2023-05-21T14:55:38;8.88;;;5.90;;
45354;SDS011;31091;48.758;9.150;2023-05-21T14:58:24;9.98;;;6.05;;
45354;SDS011;31091;48.758;9.150;2023-05-21T15:01:09;10.23;;;6.68;;
45354;SDS011;31091;48.758;9.150;2023-05-21T15:03:54;8.98;;;6.05;;
45354;SDS011;31091;48.758;9.150;2023-05-21T15:06:42;8.20;;;5.85;;
45354;SDS011;31091;48.758;9.150;2023-05-21T15:09:27;8.40;;;5.78;;
45354;SDS011;31091;48.758;9.150;2023-05-21T15:12:12;9.52;;;6.00;;
45354;SDS011;31091;48.758;9.150;2023-05-21T15:14:57;8.23;;;5.45;;
45354;SDS011;31091;48.758;9.150;2023-05-21T15:17:43;6.75;;;4.53;;
45354;SDS011;31091;48.758;9.150;2023-05-21T15:20:28;8.05;;;5.03;;
45354;SDS011;31091;48.758;9.150;2023-05-21T15:23:13;9.13;;;5.45;;
45354;SDS011;31091;48.758;9.150;2023-05-21T15:25:58;8.13;;;4.70;;
45354;SDS011;31091;48.758;9.150;2023-05-21T15:28:44;6.85;;;4.55;;
45354;SDS011;31091;48.758;9.150;2023-05-21T15:31:30;10.35;;;5.88;;
45354;SDS011;31091;48.758;9.150;2023-05-21T15:34:15;6.63;;;4.28;;
45354;SDS011;31091;48.758;9.150;2023-05-21T15:37:01;7.03;;;4.45;;
45354;SDS011;31091;48.758;9.150;2023-05-21T15:39:47;7.60;;;4.60;;
45354;SDS011;31091;48.758;9.150;2023-05-21T15:42:33;6.88;;;4.70;;
45354;SDS011;31091;48.758;9.150;2023-05-21T15:45:18;9.07;;;4.13;;
45354;SDS011;31091;48.758;9.150;2023-05-21T15:48:03;6.50;;;4.10;;
45354;SDS011;31091;48.758;9.150;2023-05-21T15:50:49;5.63;;;4.05;;
45354;SDS011;31091;48.758;9.150;2023-05-21T15:53:34;7.70;;;4.72;;
45354;SDS011;31091;48.758;9.150;2023-05-21T15:56:19;7.40;;;3.95;;
45354;SDS011;31091;48.758;9.150;2023-05-21T15:59:05;7.35;;;4.80;;
45354;SDS011;31091;48.758;9.150;2023-05-21T16:01:51;7.63;;;4.68;;
45354;SDS011;31091;48.758;9.150;2023-05-21T16:04:36;6.68;;;4.40;;
45354;SDS011;31091;48.758;9.150;2023-05-21T16:07:21;5.78;;;4.35;;
45354;SDS011;31091;48.758;9.150;2023-05-21T16:10:08;6.35;;;4.55;;
45354;SDS011;31091;48.758;9.150;2023-05-21T16:12:53;6.20;;;3.80;;
45354;SDS011;31091;48.758;9.150;2023-05-21T16:15:38;7.93;;;4.18;;
45354;SDS011;31091;48.758;9.150;2023-05-21T16:18:23;4.25;;;3.25;;
45354;SDS011;31091;48.758;9.150;2023-05-21T16:21:09;6.32;;;3.83;;
45354;SDS011;31091;48.758;9.150;2023-05-21T16:23:54;7.53;;;4.38;;
45354;SDS011;31091;48.758;9.150;2023-05-21T16:26:40;5.78;;;3.90;;
45354;SDS011;31091;48.758;9.150;2023-05-21T16:29:25;7.00;;;3.85;;
45354;SDS011;31091;48.758;9.150;2023-05-21T16:32:10;6.00;;;4.00;;
45354;SDS011;31091;48.758;9.150;2023-05-21T16:34:57;5.97;;;3.85;;
45354;SDS011;31091;48.758;9.150;2023-05-21T16:37:42;5.28;;;3.45;;
45354;SDS011;31091;48.758;9.150;2023-05-21T16:40:28;7.85;;;4.47;;
45354;SDS011;31091;48.758;9.150;2023-05-21T16:43:13;5.50;;;3.80;;
45354;SDS011;31091;48.758;9.150;2023-05-21T16:45:58;11.10;;;3.80;;
45354;SDS011;31091;48.758;9.150;2023-05-21T16:48:43;7.40;;;3.70;;